createdAt,value
2023-02-24T00:02:04.843Z,0.73
2023-02-24T00:04:38.502Z,0.77
2023-02-24T00:07:05.993Z,0.79
2023-02-24T00:09:33.288Z,0.80
2023-02-24T00:12:05.464Z,0.82
2023-02-24T00:14:40.029Z,0.74
2023-02-24T00:17:09.980Z,0.69
2023-02-24T00:19:38.074Z,0.68
2023-02-24T00:29:47.402Z,0.58
2023-02-24T00:32:14.841Z,0.56
2023-02-24T00:34:42.062Z,0.54
2023-02-24T00:37:08.995Z,0.50
2023-02-24T00:39:37.371Z,0.43
2023-02-24T00:42:06.115Z,0.32
2023-02-24T00:44:35.734Z,0.37
2023-02-24T00:47:04.921Z,0.36
2023-02-24T00:49:32.600Z,0.33
2023-02-24T00:51:59.388Z,0.29
2023-02-24T00:54:28.327Z,0.27
2023-02-24T00:56:56.401Z,0.25
2023-02-24T00:59:24.081Z,0.20
2023-02-24T01:01:51.522Z,0.25
2023-02-24T01:04:19.988Z,0.25
2023-02-24T01:06:49.230Z,0.15
2023-02-24T01:09:19.568Z,0.09
2023-02-24T01:12:08.004Z,0.01
2023-02-24T01:14:35.691Z,0.06
2023-02-24T01:17:04.088Z,0.14
2023-02-24T01:19:32.222Z,0.17
2023-02-24T01:22:01.056Z,0.17
2023-02-24T01:24:29.293Z,0.11
2023-02-24T01:26:57.165Z,0.07
2023-02-24T01:29:24.125Z,0.08
2023-02-24T01:31:51.713Z,0.06
2023-02-24T01:34:18.675Z,0.02
2023-02-24T01:36:45.483Z,0.02
2023-02-24T01:39:13.530Z,-0.01
2023-02-24T01:41:45.916Z,-0.02
2023-02-24T01:44:17.014Z,-0.08
2023-02-24T01:46:46.031Z,-0.10
2023-02-24T01:49:17.345Z,-0.12
2023-02-24T01:52:02.045Z,-0.12
2023-02-24T01:54:34.050Z,-0.20
2023-02-24T01:57:01.055Z,-0.24
2023-02-24T01:59:30.257Z,-0.20
2023-02-24T02:02:06.881Z,-0.24
2023-02-24T02:04:46.170Z,-0.24
2023-02-24T02:07:15.717Z,-0.24
2023-02-24T02:09:44.004Z,-0.27
2023-02-24T02:12:11.449Z,-0.24
2023-02-24T02:14:43.142Z,-0.27
2023-02-24T02:17:21.610Z,-0.24
2023-02-24T02:20:16.159Z,-0.24
2023-02-24T02:23:00.716Z,-0.28
2023-02-24T02:25:57.775Z,-0.24
2023-02-24T02:28:54.566Z,-0.24
2023-02-24T02:31:22.202Z,-0.25
2023-02-24T02:34:30.472Z,-0.28
2023-02-24T02:36:57.051Z,-0.25
2023-02-24T02:39:48.025Z,-0.17
2023-02-24T02:42:17.259Z,-0.15
2023-02-24T02:45:05.159Z,-0.16
2023-02-24T02:47:54.577Z,-0.17
2023-02-24T02:50:41.119Z,-0.20
2023-02-24T02:53:13.136Z,-0.21
2023-02-24T02:55:49.181Z,-0.20
2023-02-24T02:58:20.972Z,-0.20
2023-02-24T03:01:01.702Z,-0.18
2023-02-24T03:03:46.510Z,-0.18
2023-02-24T03:06:44.804Z,-0.18
2023-02-24T03:09:19.477Z,-0.17
2023-02-24T03:11:53.085Z,-0.14
2023-02-24T03:14:24.733Z,-0.12
2023-02-24T03:16:53.940Z,-0.09
2023-02-24T03:19:27.397Z,-0.11
2023-02-24T03:22:06.217Z,-0.16
2023-02-24T03:24:36.492Z,-0.13
2023-02-24T03:27:11.724Z,-0.16
2023-02-24T03:29:50.428Z,-0.11
2023-02-24T03:32:36.620Z,-0.09
2023-02-24T03:35:15.403Z,-0.04
2023-02-24T03:37:41.862Z,-0.01
2023-02-24T03:40:14.449Z,0.03
2023-02-24T03:42:44.976Z,0.12
2023-02-24T03:45:12.275Z,0.13
2023-02-24T03:47:40.716Z,0.12
2023-02-24T03:50:17.858Z,0.15
2023-02-24T03:53:10.895Z,0.20
2023-02-24T03:56:10.911Z,0.31
2023-02-24T03:58:53.462Z,0.33
2023-02-24T04:01:46.527Z,0.38
2023-02-24T04:04:40.015Z,0.47
2023-02-24T04:07:17.518Z,0.51
2023-02-24T04:09:50.291Z,0.52
2023-02-24T04:12:28.162Z,0.55
2023-02-24T04:14:58.271Z,0.62
2023-02-24T04:17:37.829Z,0.66
2023-02-24T04:20:20.764Z,0.73
2023-02-24T04:22:51.845Z,0.75
2023-02-24T04:25:27.356Z,0.81
2023-02-24T04:27:58.410Z,0.82
2023-02-24T04:30:28.087Z,0.86
2023-02-24T04:32:56.519Z,0.88
2023-02-24T04:35:26.739Z,0.90
2023-02-24T04:37:53.747Z,0.92
2023-02-24T04:40:22.249Z,0.96
2023-02-24T04:42:51.761Z,1.02
2023-02-24T04:45:22.089Z,1.04
2023-02-24T04:47:51.195Z,1.07
2023-02-24T04:50:25.914Z,1.09
2023-02-24T04:53:01.314Z,1.09
2023-02-24T04:55:32.989Z,1.10
2023-02-24T04:58:01.229Z,1.12
2023-02-24T05:00:33.586Z,1.18
2023-02-24T05:03:01.873Z,1.16
2023-02-24T05:05:28.985Z,1.20
2023-02-24T05:07:57.593Z,1.19
2023-02-24T05:10:28.070Z,1.21
2023-02-24T05:12:58.302Z,1.25
2023-02-24T05:15:31.115Z,1.25
2023-02-24T05:18:07.309Z,1.25
2023-02-24T05:21:01.875Z,1.28
2023-02-24T05:23:34.225Z,1.28
2023-02-24T05:26:03.347Z,1.29
2023-02-24T05:28:31.734Z,1.30
2023-02-24T05:31:14.934Z,1.31
2023-02-24T05:33:43.507Z,1.30
2023-02-24T05:36:15.267Z,1.30
2023-02-24T05:38:41.873Z,1.36
2023-02-24T05:41:16.795Z,1.37
2023-02-24T05:43:54.964Z,1.38
2023-02-24T05:46:32.484Z,1.36
2023-02-24T05:49:01.545Z,1.38
2023-02-24T05:51:35.772Z,1.39
2023-02-24T05:54:04.797Z,1.43
2023-02-24T05:56:36.503Z,1.47
2023-02-24T05:59:06.560Z,1.46
2023-02-24T06:01:36.084Z,1.47
2023-02-24T06:04:05.965Z,1.50
2023-02-24T06:06:35.128Z,1.51
2023-02-24T06:09:07.593Z,1.54
2023-02-24T06:11:34.816Z,1.58
2023-02-24T06:14:02.395Z,1.60
2023-02-24T06:16:30.253Z,1.63
2023-02-24T06:18:57.945Z,1.67
2023-02-24T06:21:29.138Z,1.66
2023-02-24T06:24:00.812Z,1.72
2023-02-24T06:26:29.909Z,1.73
2023-02-24T06:28:58.659Z,1.76
2023-02-24T06:31:26.618Z,1.79
2023-02-24T06:33:53.902Z,1.79
2023-02-24T06:36:21.513Z,1.83
2023-02-24T06:38:49.614Z,1.89
2023-02-24T06:41:16.208Z,1.91
2023-02-24T06:43:45.151Z,1.92
2023-02-24T06:46:13.979Z,1.97
2023-02-24T06:48:41.698Z,2.02
2023-02-24T06:51:18.680Z,2.06
2023-02-24T06:53:45.539Z,2.08
2023-02-24T06:56:20.375Z,2.10
2023-02-24T06:58:50.563Z,2.17
2023-02-24T07:01:21.442Z,2.20
2023-02-24T07:04:17.816Z,2.20
2023-02-24T07:06:52.454Z,2.25
2023-02-24T07:09:22.574Z,2.31
2023-02-24T07:11:52.431Z,2.32
2023-02-24T07:14:27.999Z,2.36
2023-02-24T07:16:55.281Z,2.37
2023-02-24T07:19:26.650Z,2.44
2023-02-24T07:22:00.340Z,2.47
2023-02-24T07:24:46.028Z,2.50
2023-02-24T07:27:22.109Z,2.54
2023-02-24T07:29:52.765Z,2.57
2023-02-24T07:32:25.382Z,2.58
2023-02-24T07:34:52.737Z,2.63
2023-02-24T07:37:20.515Z,2.70
2023-02-24T07:39:47.433Z,2.73
2023-02-24T07:42:13.946Z,2.76
2023-02-24T07:44:40.572Z,2.80
2023-02-24T07:47:10.056Z,2.85
2023-02-24T07:49:39.164Z,2.91
2023-02-24T07:52:08.161Z,2.92
2023-02-24T07:54:35.168Z,2.98
2023-02-24T07:57:01.676Z,3.02
2023-02-24T07:59:33.855Z,3.06
2023-02-24T08:02:04.718Z,3.09
2023-02-24T08:04:33.051Z,3.13
2023-02-24T08:07:03.230Z,3.17
2023-02-24T08:09:46.478Z,3.21
2023-02-24T08:12:22.009Z,3.22
2023-02-24T08:14:52.174Z,3.29
2023-02-24T08:17:23.863Z,3.31
2023-02-24T08:20:12.036Z,3.37
2023-02-24T08:22:44.344Z,3.43
2023-02-24T08:25:18.517Z,3.42
2023-02-24T08:28:12.122Z,3.47
2023-02-24T08:30:46.032Z,3.55
2023-02-24T08:33:18.617Z,3.61
2023-02-24T08:35:45.378Z,3.67
2023-02-24T08:38:15.999Z,3.73
2023-02-24T08:40:51.302Z,3.79
2023-02-24T08:43:40.176Z,3.85
2023-02-24T08:46:18.381Z,3.87
2023-02-24T08:48:48.406Z,3.87
2023-02-24T08:51:35.669Z,3.91
2023-02-24T08:54:19.379Z,3.90
2023-02-24T08:56:56.012Z,3.93
2023-02-24T08:59:54.446Z,3.92
2023-02-24T09:02:27.423Z,3.99
2023-02-24T09:05:05.267Z,4.01
2023-02-24T09:07:37.954Z,4.03
2023-02-24T09:10:17.677Z,4.08
2023-02-24T09:12:44.853Z,4.10
2023-02-24T09:15:15.399Z,4.18
2023-02-24T09:17:47.086Z,4.28
2023-02-24T09:20:36.167Z,4.31
2023-02-24T09:23:04.218Z,4.36
2023-02-24T09:25:44.002Z,4.39
2023-02-24T09:28:25.688Z,4.46
2023-02-24T09:30:58.520Z,4.59
2023-02-24T09:33:38.981Z,4.63
2023-02-24T09:36:20.097Z,4.64
2023-02-24T09:38:57.750Z,4.65
2023-02-24T09:41:33.932Z,4.71
2023-02-24T09:44:18.230Z,4.79
2023-02-24T09:46:59.235Z,4.80
2023-02-24T09:49:46.579Z,4.80
2023-02-24T09:52:17.126Z,4.76
2023-02-24T09:55:08.441Z,4.74
2023-02-24T09:58:06.258Z,4.79
2023-02-24T10:00:35.202Z,4.74
2023-02-24T10:03:19.732Z,4.77
2023-02-24T10:06:12.330Z,4.81
2023-02-24T10:08:47.740Z,4.83
2023-02-24T10:11:15.068Z,4.80
2023-02-24T10:13:52.833Z,4.87
2023-02-24T10:16:24.067Z,4.86
2023-02-24T10:19:15.140Z,4.92
2023-02-24T10:22:02.962Z,4.94
2023-02-24T10:24:38.413Z,4.95
2023-02-24T10:27:41.389Z,4.96
2023-02-24T10:30:11.431Z,4.95
2023-02-24T10:32:51.056Z,4.94
2023-02-24T10:35:20.382Z,4.95
2023-02-24T10:37:49.445Z,5.02
2023-02-24T10:40:26.432Z,4.99
2023-02-24T10:43:10.678Z,5.02
2023-02-24T10:45:45.311Z,5.00
2023-02-24T10:48:40.748Z,5.03
2023-02-24T10:51:20.177Z,5.03
2023-02-24T10:54:10.362Z,5.02
2023-02-24T10:57:00.579Z,5.09
2023-02-24T10:59:48.208Z,5.14
2023-02-24T11:02:45.781Z,5.21
2023-02-24T11:05:45.943Z,5.23
2023-02-24T11:08:36.647Z,5.25
2023-02-24T11:11:30.781Z,5.32
2023-02-24T11:14:18.849Z,5.29
2023-02-24T11:17:13.728Z,5.31
2023-02-24T11:19:47.630Z,5.39
2023-02-24T11:22:20.335Z,5.46
2023-02-24T11:24:48.586Z,5.53
2023-02-24T11:27:18.349Z,5.58
2023-02-24T11:30:06.401Z,5.63
2023-02-24T11:32:38.793Z,5.67
2023-02-24T11:35:18.297Z,5.72
2023-02-24T11:38:12.221Z,5.76
2023-02-24T11:40:43.751Z,5.78
2023-02-24T11:43:20.911Z,5.83
2023-02-24T11:45:58.268Z,5.86
2023-02-24T11:48:32.404Z,5.88
2023-02-24T11:51:21.074Z,5.87
2023-02-24T11:53:51.245Z,5.93
2023-02-24T11:56:29.613Z,6.01
2023-02-24T11:59:40.428Z,6.07
2023-02-24T12:02:19.610Z,6.10
2023-02-24T12:05:07.330Z,6.18
2023-02-24T12:07:54.557Z,6.35
2023-02-24T12:10:27.494Z,6.56
2023-02-24T12:13:13.990Z,6.68
2023-02-24T12:15:50.079Z,6.90
2023-02-24T12:18:25.518Z,6.94
2023-02-24T12:20:57.095Z,7.13
2023-02-24T12:23:29.665Z,7.23
2023-02-24T12:25:56.080Z,7.34
2023-02-24T12:28:43.547Z,7.36
2023-02-24T12:31:55.620Z,7.44
2023-02-24T12:34:35.632Z,7.41
2023-02-24T12:37:17.620Z,7.51
2023-02-24T12:40:11.540Z,7.60
2023-02-24T12:42:45.266Z,7.74
2023-02-24T12:45:34.017Z,7.81
2023-02-24T12:48:51.399Z,8.02
2023-02-24T12:51:33.492Z,8.43
2023-02-24T12:53:59.958Z,8.81
2023-02-24T12:56:45.539Z,9.02
2023-02-24T12:59:17.041Z,9.08
2023-02-24T13:01:54.014Z,9.13
2023-02-24T13:04:35.407Z,8.92
2023-02-24T13:07:12.693Z,8.70
2023-02-24T13:10:00.662Z,8.54
2023-02-24T13:12:36.217Z,8.40
2023-02-24T13:15:07.710Z,8.23
2023-02-24T13:17:34.251Z,8.20
2023-02-24T13:20:11.487Z,8.16
2023-02-24T13:22:42.109Z,8.18
2023-02-24T13:25:08.574Z,8.55
2023-02-24T13:27:40.883Z,8.80
2023-02-24T13:30:17.807Z,8.79
2023-02-24T13:33:00.574Z,8.68
2023-02-24T13:35:27.033Z,8.57
2023-02-24T13:37:54.300Z,8.50
2023-02-24T13:40:23.940Z,8.43
2023-02-24T13:42:56.532Z,8.38
2023-02-24T13:45:25.856Z,8.11
2023-02-24T13:48:16.390Z,7.31
2023-02-24T13:50:57.962Z,6.87
2023-02-24T13:53:46.064Z,6.73
2023-02-24T13:56:30.737Z,6.69
2023-02-24T13:59:05.062Z,6.68
2023-02-24T14:01:44.572Z,6.77
2023-02-24T14:04:24.611Z,6.93
2023-02-24T14:06:56.606Z,7.17
2023-02-24T14:09:30.059Z,7.35
2023-02-24T14:12:03.187Z,7.56
2023-02-24T14:14:31.239Z,7.82
2023-02-24T14:16:57.746Z,7.98
2023-02-24T14:19:26.503Z,8.29
2023-02-24T14:21:59.113Z,8.29
2023-02-24T14:24:29.128Z,8.29
2023-02-24T14:26:57.719Z,8.20
2023-02-24T14:29:31.733Z,8.07
2023-02-24T14:31:59.400Z,7.86
2023-02-24T14:34:28.691Z,7.71
2023-02-24T14:36:57.830Z,7.58
2023-02-24T14:39:27.249Z,7.56
2023-02-24T14:42:23.293Z,7.65
2023-02-24T14:44:52.490Z,7.59
2023-02-24T14:47:21.577Z,7.52
2023-02-24T14:50:02.496Z,7.41
2023-02-24T14:52:35.809Z,7.32
2023-02-24T14:55:07.635Z,7.25
2023-02-24T14:57:39.888Z,7.21
2023-02-24T15:00:17.300Z,7.12
2023-02-24T15:02:49.309Z,7.07
2023-02-24T15:05:16.830Z,7.32
2023-02-24T15:07:46.746Z,7.62
2023-02-24T15:10:26.952Z,7.64
2023-02-24T15:13:09.931Z,7.68
2023-02-24T15:15:42.582Z,7.63
2023-02-24T15:18:29.448Z,8.18
2023-02-24T15:21:01.271Z,8.80
2023-02-24T15:23:34.290Z,9.10
2023-02-24T15:26:01.596Z,8.88
2023-02-24T15:28:31.303Z,9.33
2023-02-24T15:31:10.526Z,10.49
2023-02-24T15:33:40.491Z,10.48
2023-02-24T15:36:20.181Z,9.74
2023-02-24T15:38:51.139Z,8.86
2023-02-24T15:41:17.663Z,9.09
2023-02-24T15:43:45.639Z,9.33
2023-02-24T15:46:19.306Z,9.56
2023-02-24T15:48:51.666Z,9.78
2023-02-24T15:51:21.596Z,9.56
2023-02-24T15:53:48.387Z,9.14
2023-02-24T15:56:17.245Z,8.55
2023-02-24T15:58:44.044Z,8.29
2023-02-24T16:01:12.733Z,8.08
2023-02-24T16:03:40.108Z,7.84
2023-02-24T16:06:13.468Z,7.63
2023-02-24T16:08:44.838Z,7.49
2023-02-24T16:11:13.057Z,7.36
2023-02-24T16:13:40.589Z,7.28
2023-02-24T16:16:10.763Z,7.18
2023-02-24T16:18:37.418Z,7.05
2023-02-24T16:21:04.104Z,7.00
2023-02-24T16:23:38.585Z,6.97
2023-02-24T16:26:05.233Z,7.09
2023-02-24T16:28:32.109Z,7.10
2023-02-24T16:30:58.843Z,6.92
2023-02-24T16:33:25.735Z,6.81
2023-02-24T16:35:55.407Z,6.73
2023-02-24T16:38:26.396Z,6.64
2023-02-24T16:40:54.442Z,6.60
2023-02-24T16:43:21.162Z,6.56
2023-02-24T16:45:47.762Z,6.51
2023-02-24T16:48:20.941Z,6.49
2023-02-24T16:50:47.962Z,6.45
2023-02-24T16:53:18.735Z,6.38
2023-02-24T16:55:46.552Z,6.36
2023-02-24T16:58:14.011Z,6.28
2023-02-24T17:00:43.186Z,6.26
2023-02-24T17:03:16.676Z,6.22
2023-02-24T17:05:44.318Z,6.19
2023-02-24T17:08:11.378Z,6.14
2023-02-24T17:10:39.933Z,6.13
2023-02-24T17:13:06.991Z,6.12
2023-02-24T17:15:33.605Z,6.09
2023-02-24T17:18:00.069Z,5.95
2023-02-24T17:20:26.614Z,5.88
2023-02-24T17:22:53.474Z,5.77
2023-02-24T17:25:23.549Z,5.69
2023-02-24T17:27:52.066Z,5.64
2023-02-24T17:30:24.392Z,5.68
2023-02-24T17:32:51.078Z,5.69
2023-02-24T17:35:17.898Z,5.65
2023-02-24T17:37:44.449Z,5.63
2023-02-24T17:40:12.137Z,5.57
2023-02-24T17:42:39.277Z,5.54
2023-02-24T17:45:07.341Z,5.55
2023-02-24T17:47:34.478Z,5.52
2023-02-24T17:50:01.991Z,5.52
2023-02-24T17:52:29.541Z,5.51
2023-02-24T17:54:56.252Z,5.51
2023-02-24T17:57:22.813Z,5.54
2023-02-24T17:59:49.344Z,5.56
2023-02-24T18:02:17.533Z,5.58
2023-02-24T18:04:44.170Z,5.64
2023-02-24T18:07:12.260Z,5.61
2023-02-24T18:09:38.816Z,5.48
2023-02-24T18:12:05.682Z,5.34
2023-02-24T18:14:32.490Z,5.30
2023-02-24T18:16:59.063Z,5.20
2023-02-24T18:19:25.617Z,5.14
2023-02-24T18:21:52.199Z,5.09
2023-02-24T18:24:18.725Z,5.05
2023-02-24T18:26:45.203Z,5.13
2023-02-24T18:29:11.676Z,5.14
2023-02-24T18:31:38.367Z,5.09
2023-02-24T18:34:05.063Z,5.10
2023-02-24T18:36:31.682Z,5.05
2023-02-24T18:38:58.236Z,4.97
2023-02-24T18:41:25.001Z,4.95
2023-02-24T18:43:54.646Z,4.90
2023-02-24T18:46:22.386Z,4.95
2023-02-24T18:48:50.291Z,4.96
2023-02-24T18:51:20.979Z,4.93
2023-02-24T18:53:49.288Z,4.88
2023-02-24T18:56:18.885Z,4.86
2023-02-24T18:58:46.879Z,4.80
2023-02-24T19:01:16.005Z,4.80
2023-02-24T19:03:43.603Z,4.82
2023-02-24T19:06:11.428Z,4.82
2023-02-24T19:08:38.714Z,4.73
2023-02-24T19:11:10.324Z,4.70
2023-02-24T19:13:37.233Z,4.70
2023-02-24T19:16:04.903Z,4.73
2023-02-24T19:18:32.059Z,4.66
2023-02-24T19:20:58.758Z,4.64
2023-02-24T19:23:25.375Z,4.64
2023-02-24T19:25:52.128Z,4.61
2023-02-24T19:28:18.750Z,4.59
2023-02-24T19:30:45.356Z,4.64
2023-02-24T19:33:12.067Z,4.65
2023-02-24T19:35:43.162Z,4.68
2023-02-24T19:38:15.189Z,4.72
2023-02-24T19:40:41.941Z,4.76
2023-02-24T19:43:08.645Z,4.79
2023-02-24T19:45:35.471Z,4.85
2023-02-24T19:48:02.045Z,4.92
2023-02-24T19:50:28.525Z,4.90
2023-02-24T19:52:54.960Z,4.97
2023-02-24T19:55:21.605Z,5.01
2023-02-24T19:57:48.126Z,5.05
2023-02-24T20:00:14.788Z,5.07
2023-02-24T20:02:41.328Z,5.07
2023-02-24T20:05:10.293Z,5.07
2023-02-24T20:07:37.120Z,5.13
2023-02-24T20:10:04.294Z,5.09
2023-02-24T20:12:30.968Z,5.09
2023-02-24T20:14:58.466Z,5.12
2023-02-24T20:17:24.977Z,5.15
2023-02-24T20:19:51.415Z,5.19
2023-02-24T20:22:18.052Z,5.25
2023-02-24T20:24:44.534Z,5.26
2023-02-24T20:27:10.977Z,5.25
2023-02-24T20:29:37.716Z,5.25
2023-02-24T20:32:04.573Z,5.26
2023-02-24T20:34:31.430Z,5.31
2023-02-24T20:36:57.971Z,5.30
2023-02-24T20:39:24.895Z,5.29
2023-02-24T20:41:53.555Z,5.35
2023-02-24T20:44:20.849Z,5.34
2023-02-24T20:46:47.455Z,5.29
2023-02-24T20:49:14.962Z,5.22
2023-02-24T20:51:43.516Z,5.25
2023-02-24T20:54:12.305Z,5.24
2023-02-24T20:56:41.419Z,5.21
2023-02-24T20:59:21.915Z,5.11
2023-02-24T21:01:49.590Z,5.08
2023-02-24T21:04:19.317Z,5.06
2023-02-24T21:06:47.866Z,5.02
2023-02-24T21:09:15.601Z,5.00
2023-02-24T21:11:42.123Z,4.99
2023-02-24T21:14:14.474Z,5.01
2023-02-24T21:16:40.976Z,5.01
2023-02-24T21:19:07.544Z,5.01
2023-02-24T21:21:34.022Z,4.97
2023-02-24T21:24:00.767Z,4.83
2023-02-24T21:26:29.109Z,4.68
2023-02-24T21:28:57.848Z,4.58
2023-02-24T21:31:25.509Z,4.48
2023-02-24T21:33:53.186Z,4.42
2023-02-24T21:36:21.581Z,4.37
2023-02-24T21:38:48.648Z,4.31
2023-02-24T21:41:15.996Z,4.30
2023-02-24T21:43:43.573Z,4.29
2023-02-24T21:46:12.025Z,4.28
2023-02-24T21:48:38.894Z,4.26
2023-02-24T21:51:08.666Z,4.27
2023-02-24T21:53:39.046Z,4.26
2023-02-24T21:56:10.828Z,4.23
2023-02-24T21:58:39.633Z,4.17
2023-02-24T22:01:14.944Z,4.12
2023-02-24T22:03:41.679Z,4.09
2023-02-24T22:06:13.508Z,4.06
2023-02-24T22:08:43.522Z,4.01
2023-02-24T22:11:12.127Z,4.02
2023-02-24T22:13:39.462Z,3.95
2023-02-24T22:16:19.485Z,3.88
2023-02-24T22:18:47.339Z,3.87
2023-02-24T22:21:21.991Z,3.87
2023-02-24T22:23:51.089Z,3.88
2023-02-24T22:26:19.152Z,3.87
2023-02-24T22:28:47.231Z,3.88
2023-02-24T22:31:17.461Z,3.89
2023-02-24T22:33:44.763Z,3.84
2023-02-24T22:36:14.545Z,3.86
2023-02-24T22:38:42.177Z,3.79
2023-02-24T22:41:12.242Z,3.79
2023-02-24T22:43:38.799Z,3.73
2023-02-24T22:46:09.066Z,3.65
2023-02-24T22:48:37.137Z,3.62
2023-02-24T22:51:05.831Z,3.57
2023-02-24T22:53:34.427Z,3.54
2023-02-24T22:56:00.892Z,3.52
2023-02-24T22:58:27.522Z,3.47
2023-02-24T23:00:55.118Z,3.42
2023-02-24T23:03:28.212Z,3.41
2023-02-24T23:06:02.641Z,3.44
2023-02-24T23:08:31.945Z,3.44
2023-02-24T23:11:14.090Z,3.44
2023-02-24T23:13:42.861Z,3.46
2023-02-24T23:16:14.050Z,3.45
2023-02-24T23:18:41.616Z,3.40
2023-02-24T23:21:09.645Z,3.34
2023-02-24T23:23:37.585Z,3.30
2023-02-24T23:26:05.442Z,3.32
2023-02-24T23:28:32.380Z,3.34
2023-02-24T23:30:59.457Z,3.37
2023-02-24T23:33:26.511Z,3.37
2023-02-24T23:35:53.091Z,3.38
2023-02-24T23:38:19.727Z,3.42
2023-02-24T23:40:50.811Z,3.44
2023-02-24T23:43:18.115Z,3.43
2023-02-24T23:45:44.767Z,3.45
2023-02-24T23:48:13.554Z,3.43
2023-02-24T23:50:41.447Z,3.51
2023-02-24T23:53:09.004Z,3.56
2023-02-24T23:55:38.304Z,3.62
2023-02-24T23:58:05.343Z,3.76
